Terminal Aerodrome Forecast
Issued by NWS Louisville, KY

Home | Current Version | Previous Version | Text Only | Print | Product List | Glossary On
Versions: 1 2 3 4 5 6 7 8 9 10 11 12 13 14 15 16 17 18 19
000
FTUS43 KLMK 150500 RRA
TAFSDF
TAF
KSDF 150544Z 1506/1612 32015G23KT 4SM -RA BR BKN015
     FM150830 32015G20KT P6SM SCT019 BKN025
     FM151400 33015KT P6SM SCT025 BKN035
     FM151800 33015G21KT P6SM BKN040
     FM160000 VRB04KT P6SM SKC=

USA.gov is the U.S. government's official web portal to all federal, state and local government web resources and services.